Time,TemperatureF,DewpointF,PressureIn,WindDirection,WindDirectionDegrees,WindSpeedMPH,WindSpeedGustMPH,Humidity,HourlyPrecipIn,Conditions,Clouds,dailyrainin,SolarRadiationWatts/m^2,SoftwareType,DateUTC
2013-01-07 00:00:00,37.0,28.5,30.05,NE,45,1.0,4.0,71,0.00,,CLR,0.00,0.00,VWS V14.01,2013-01-07 08:00:00,
2013-01-07 00:08:00,36.2,27.0,30.05,NNE,16,0.0,4.0,69,0.00,,,0.00,0,weatherlink.com 1.10,2013-01-07 08:08:00,
2013-01-07 00:15:00,36.2,26.0,30.05,NNE,22,1.0,3.0,66,0.00,,CLR,0.00,0.00,VWS V14.01,2013-01-07 08:15:00,
2013-01-07 00:23:00,35.9,24.0,30.05,NNE,16,0.0,1.0,62,0.00,,,0.00,0,weatherlink.com 1.10,2013-01-07 08:23:00,
2013-01-07 00:30:00,35.9,23.4,30.05,NNE,22,0.0,1.0,60,0.00,,---,0.00,0.00,VWS V14.01,2013-01-07 08:30:00,
2013-01-07 00:38:00,35.5,23.0,30.05,NNE,16,0.0,0.0,60,0.00,,,0.00,0,weatherlink.com 1.10,2013-01-07 08:38:00,
2013-01-07 00:45:00,35.5,22.2,30.05,NNE,22,0.0,0.0,58,0.00,,---,0.00,0.00,VWS V14.01,2013-01-07 08:45:00,
2013-01-07 00:53:00,34.4,21.0,30.05,NNE,16,0.0,0.0,58,0.00,,,0.00,0,weatherlink.com 1.10,2013-01-07 08:53:00,
2013-01-07 01:00:00,34.4,21.2,30.05,NNE,22,0.0,0.0,58,0.00,,CLR,0.00,0.00,VWS V14.01,2013-01-07 09:00:00,
2013-01-07 01:08:00,33.7,20.0,30.05,NNE,12,3.0,3.0,58,0.00,,,0.00,0,weatherlink.com 1.10,2013-01-07 09:08:00,
2013-01-07 01:15:00,33.7,20.5,30.06,NNE,22,1.0,3.0,58,0.00,,---,0.00,0.00,VWS V14.01,2013-01-07 09:15:00,
2013-01-07 01:24:00,33.5,20.0,30.05,NNE,12,1.0,2.0,57,0.00,,,0.00,0,weatherlink.com 1.10,2013-01-07 09:24:00,
2013-01-07 01:30:00,33.5,19.9,30.06,NNE,22,0.0,2.0,57,0.00,,CLR,0.00,0.00,VWS V14.01,2013-01-07 09:30:00,
2013-01-07 01:39:00,33.4,19.0,30.05,NNE,12,0.0,0.0,57,0.00,,,0.00,0,weatherlink.com 1.10,2013-01-07 09:39:00,
2013-01-07 01:45:00,33.3,20.1,30.06,NNE,22,0.0,0.0,58,0.00,,CLR,0.00,0.00,VWS V14.01,2013-01-07 09:45:00,
2013-01-07 01:54:00,32.9,19.0,30.06,North,353,3.0,5.0,58,0.00,,,0.00,0,weatherlink.com 1.10,2013-01-07 09:54:00,
2013-01-07 02:00:00,33.0,19.4,30.06,North,0,2.0,5.0,57,0.00,,---,0.00,0.00,VWS V14.01,2013-01-07 10:00:00,
2013-01-07 02:09:00,33.2,19.0,30.06,North,349,2.0,4.0,56,0.00,,,0.00,0,weatherlink.com 1.10,2013-01-07 10:09:00,
2013-01-07 02:15:00,33.3,19.3,30.06,North,0,2.0,4.0,56,0.00,,---,0.00,0.00,VWS V14.01,2013-01-07 10:15:00,
2013-01-07 02:24:00,33.4,19.0,30.06,North,349,2.0,2.0,56,0.00,,,0.00,0,weatherlink.com 1.10,2013-01-07 10:24:00,
2013-01-07 02:30:00,33.5,17.8,30.06,North,0,2.0,7.0,52,0.00,,---,0.00,0.00,VWS V14.01,2013-01-07 10:30:00,
2013-01-07 02:39:00,36.6,17.0,30.06,NW,320,4.0,10.0,46,0.00,,,0.00,0,weatherlink.com 1.10,2013-01-07 10:39:00,
2013-01-07 02:45:00,36.4,15.5,30.06,NW,315,5.0,10.0,42,0.00,,---,0.00,0.00,VWS V14.01,2013-01-07 10:45:00,
2013-01-07 02:54:00,40.9,17.0,30.06,NNW,340,3.0,16.0,38,0.00,,,0.00,0,weatherlink.com 1.10,2013-01-07 10:54:00,
2013-01-07 03:00:00,40.5,16.3,30.07,NNW,338,5.0,16.0,37,0.00,,---,0.00,0.00,VWS V14.01,2013-01-07 11:00:00,
2013-01-07 03:09:00,41.5,17.0,30.06,NNW,347,0.0,3.0,37,0.00,,,0.00,0,weatherlink.com 1.10,2013-01-07 11:09:00,
2013-01-07 03:15:00,41.4,16.5,30.05,NNW,338,1.0,10.0,36,0.00,,---,0.00,0.00,VWS V14.01,2013-01-07 11:15:00,
2013-01-07 03:24:00,41.6,16.0,30.05,North,358,15.0,19.0,35,0.00,,,0.00,0,weatherlink.com 1.10,2013-01-07 11:24:00,
2013-01-07 03:30:00,41.6,15.3,30.05,North,0,11.0,20.0,34,0.00,,---,0.00,0.00,VWS V14.01,2013-01-07 11:30:00,
2013-01-07 03:39:00,42.5,16.0,30.06,North,352,10.0,19.0,34,0.00,,,0.00,0,weatherlink.com 1.10,2013-01-07 11:39:00,
2013-01-07 03:45:00,42.4,15.4,30.05,North,0,11.0,19.0,33,0.00,,---,0.00,0.00,VWS V14.01,2013-01-07 11:45:00,
2013-01-07 03:54:00,42.8,15.0,30.05,North,351,7.0,15.0,32,0.00,,,0.00,0,weatherlink.com 1.10,2013-01-07 11:54:00,
2013-01-07 04:00:00,42.8,15.0,30.05,North,0,9.0,14.0,32,0.00,,CLR,0.00,0.00,VWS V14.01,2013-01-07 12:00:00,
2013-01-07 04:09:00,42.3,15.0,30.05,North,356,5.0,14.0,33,0.00,,,0.00,0,weatherlink.com 1.10,2013-01-07 12:09:00,
2013-01-07 04:15:00,42.3,15.9,30.05,North,0,8.0,14.0,34,0.00,,CLR,0.00,0.00,VWS V14.01,2013-01-07 12:15:00,
2013-01-07 04:24:00,41.6,16.0,30.05,North,355,4.0,12.0,35,0.00,,,0.00,0,weatherlink.com 1.10,2013-01-07 12:24:00,
2013-01-07 04:30:00,41.6,16.0,30.05,North,0,6.0,10.0,35,0.00,,CLR,0.00,0.00,VWS V14.01,2013-01-07 12:30:00,
2013-01-07 04:39:00,41.1,15.0,30.05,NNE,12,6.0,9.0,35,0.00,,,0.00,0,weatherlink.com 1.10,2013-01-07 12:39:00,
2013-01-07 04:45:00,41.1,15.6,30.05,North,0,5.0,10.0,35,0.00,,CLR,0.00,0.00,VWS V14.01,2013-01-07 12:45:00,
2013-01-07 04:54:00,42.1,14.0,30.05,NNE,24,7.0,13.0,32,0.00,,,0.00,0,weatherlink.com 1.10,2013-01-07 12:54:00,
2013-01-07 05:00:00,41.9,13.5,30.05,NNE,22,8.0,13.0,31,0.00,,---,0.00,0.00,VWS V14.01,2013-01-07 13:00:00,
2013-01-07 05:09:00,43.6,13.0,30.05,North,350,9.0,16.0,29,0.00,,,0.00,0,weatherlink.com 1.10,2013-01-07 13:09:00,
2013-01-07 05:15:00,43.5,12.6,30.05,NNE,22,9.0,16.0,28,0.00,,---,0.00,0.00,VWS V14.01,2013-01-07 13:15:00,
2013-01-07 05:24:00,44.1,13.0,30.06,NNE,28,13.0,15.0,28,0.00,,,0.00,0,weatherlink.com 1.10,2013-01-07 13:24:00,
2013-01-07 05:30:00,44.1,13.1,30.06,NNE,22,10.0,16.0,28,0.00,,CLR,0.00,0.00,VWS V14.01,2013-01-07 13:30:00,
2013-01-07 05:39:00,44.1,13.0,30.06,NNE,24,10.0,17.0,28,0.00,,,0.00,0,weatherlink.com 1.10,2013-01-07 13:39:00,
2013-01-07 05:45:00,44.1,13.1,30.06,NNE,22,8.0,17.0,28,0.00,,CLR,0.00,0.00,VWS V14.01,2013-01-07 13:45:00,
2013-01-07 05:54:00,43.3,13.0,30.07,NE,35,7.0,11.0,29,0.00,,,0.00,0,weatherlink.com 1.10,2013-01-07 13:54:00,
2013-01-07 06:00:00,43.4,13.3,30.07,NNE,22,5.0,11.0,29,0.00,,CLR,0.00,0.00,VWS V14.01,2013-01-07 14:00:00,
2013-01-07 06:09:00,42.6,13.0,30.07,North,2,2.0,7.0,30,0.00,,,0.00,0,weatherlink.com 1.10,2013-01-07 14:09:00,
2013-01-07 06:15:00,42.6,13.4,30.07,North,0,2.0,6.0,30,0.00,,---,0.00,0.00,VWS V14.01,2013-01-07 14:15:00,
2013-01-07 06:24:00,40.5,13.0,30.07,WSW,249,5.0,7.0,32,0.00,,,0.00,0,weatherlink.com 1.10,2013-01-07 14:24:00,
2013-01-07 06:30:00,40.7,14.5,30.08,WSW,248,4.0,7.0,34,0.00,,CLR,0.00,0.00,VWS V14.01,2013-01-07 14:30:00,
2013-01-07 06:39:00,39.1,13.0,30.08,WSW,247,2.0,5.0,35,0.00,,,0.00,0,weatherlink.com 1.10,2013-01-07 14:39:00,
2013-01-07 06:45:00,39.1,13.8,30.08,WSW,248,3.0,5.0,35,0.00,,---,0.00,0.00,VWS V14.01,2013-01-07 14:45:00,
2013-01-07 06:54:00,38.2,13.0,30.09,WSW,247,1.0,4.0,35,0.00,,,0.00,0,weatherlink.com 1.10,2013-01-07 14:54:00,
2013-01-07 07:00:00,38.2,13.6,30.09,WSW,248,2.0,4.0,36,0.00,,CLR,0.00,1.00,VWS V14.01,2013-01-07 15:00:00,
2013-01-07 07:09:00,37.6,13.0,30.10,WSW,248,2.0,6.0,36,0.00,,,0.00,11,weatherlink.com 1.10,2013-01-07 15:09:00,
2013-01-07 07:15:00,37.7,13.2,30.10,WSW,248,2.0,6.0,36,0.00,,CLR,0.00,15.00,VWS V14.01,2013-01-07 15:15:00,
2013-01-07 07:24:00,37.6,13.0,30.10,West,272,4.0,4.0,36,0.00,,,0.00,60,weatherlink.com 1.10,2013-01-07 15:24:00,
2013-01-07 07:30:00,37.7,12.5,30.11,NW,315,1.0,6.0,35,0.00,,CLR,0.00,58.00,VWS V14.01,2013-01-07 15:30:00,
2013-01-07 07:39:00,39.6,12.0,30.11,NW,323,2.0,5.0,32,0.00,,,0.00,111,weatherlink.com 1.10,2013-01-07 15:39:00,
2013-01-07 07:45:00,39.4,11.3,30.11,NW,315,3.0,6.0,31,0.00,,CLR,0.00,109.00,VWS V14.01,2013-01-07 15:45:00,
2013-01-07 07:54:00,42.1,12.0,30.12,NNW,348,3.0,7.0,29,0.00,,,0.00,160,weatherlink.com 1.10,2013-01-07 15:54:00,
2013-01-07 08:00:00,49.5,11.2,30.12,North,0,7.0,14.0,21,0.00,,---,0.00,,VWS V14.01,2013-01-07 16:00:00,
2013-01-07 08:09:00,44.2,12.0,30.12,NNE,16,2.0,7.0,27,0.00,,,0.00,206,weatherlink.com 1.10,2013-01-07 16:09:00,
2013-01-07 08:15:00,44.0,12.2,30.12,NNE,22,3.0,7.0,27,0.00,,CLR,0.00,201.00,VWS V14.01,2013-01-07 16:15:00,
2013-01-07 08:24:00,46.0,13.0,30.12,North,2,0.0,7.0,26,0.00,,,0.00,246,weatherlink.com 1.10,2013-01-07 16:24:00,
2013-01-07 08:30:00,45.8,12.9,30.12,North,0,2.0,7.0,26,0.00,,---,0.00,243.00,VWS V14.01,2013-01-07 16:30:00,
2013-01-07 08:40:00,48.0,13.0,30.12,North,2,7.0,10.0,24,0.00,,,0.00,288,weatherlink.com 1.10,2013-01-07 16:40:00,
2013-01-07 08:45:00,47.8,11.8,30.12,North,0,6.0,14.0,23,0.00,,---,0.00,286.00,VWS V14.01,2013-01-07 16:45:00,
2013-01-07 08:55:00,49.6,12.0,30.12,North,2,7.0,14.0,22,0.00,,,0.00,330,weatherlink.com 1.10,2013-01-07 16:55:00,
2013-01-07 09:00:00,49.5,11.2,30.12,North,0,7.0,14.0,21,0.00,,---,0.00,325.00,VWS V14.01,2013-01-07 17:00:00,
2013-01-07 09:10:00,51.1,12.0,30.13,NNW,345,3.0,15.0,21,0.00,,,0.00,366,weatherlink.com 1.10,2013-01-07 17:10:00,
2013-01-07 09:15:00,50.9,11.3,30.13,NNE,22,6.0,15.0,20,0.00,,---,0.00,362.00,VWS V14.01,2013-01-07 17:15:00,
2013-01-07 09:25:00,52.0,12.0,30.14,North,2,8.0,13.0,20,0.00,,,0.00,401,weatherlink.com 1.10,2013-01-07 17:25:00,
2013-01-07 09:30:00,52.0,12.2,30.14,North,0,6.0,13.0,20,0.00,,---,0.00,398.00,VWS V14.01,2013-01-07 17:30:00,
2013-01-07 09:40:00,52.9,11.0,30.15,NW,326,7.0,12.0,19,0.00,,,0.00,434,weatherlink.com 1.10,2013-01-07 17:40:00,
2013-01-07 09:45:00,52.8,11.7,30.15,NNW,338,7.0,14.0,19,0.00,,---,0.00,430.00,VWS V14.01,2013-01-07 17:45:00,
2013-01-07 09:55:00,53.6,12.0,30.15,NW,318,16.0,18.0,19,0.00,,,0.00,462,weatherlink.com 1.10,2013-01-07 17:55:00,
2013-01-07 10:00:00,53.5,12.3,30.16,NW,315,9.0,18.0,19,0.00,,---,0.00,460.00,VWS V14.01,2013-01-07 18:00:00,
2013-01-07 10:10:00,53.9,11.0,30.15,NNW,337,10.0,16.0,18,0.00,,,0.00,490,weatherlink.com 1.10,2013-01-07 18:10:00,
2013-01-07 10:15:00,53.9,11.4,30.15,NNW,338,9.0,17.0,18,0.00,,---,0.00,488.00,VWS V14.01,2013-01-07 18:15:00,
2013-01-07 10:30:00,54.8,10.8,30.15,NNW,338,12.0,20.0,17,0.00,,CLR,0.00,518.00,VWS V14.01,2013-01-07 18:30:00,
2013-01-07 10:40:00,55.7,11.0,30.14,NNW,331,8.0,20.0,17,0.00,,,0.00,533,weatherlink.com 1.10,2013-01-07 18:40:00,
2013-01-07 10:45:00,55.6,10.1,30.14,NNW,338,12.0,20.0,16,0.00,,CLR,0.00,518.00,VWS V14.01,2013-01-07 18:45:00,
2013-01-07 10:55:00,56.5,11.0,30.12,North,349,15.0,19.0,16,0.00,,,0.00,555,weatherlink.com 1.10,2013-01-07 18:55:00,
2013-01-07 11:00:00,56.3,10.7,30.12,North,0,12.0,19.0,16,0.00,,---,0.00,554.00,VWS V14.01,2013-01-07 19:00:00,
2013-01-07 11:10:00,57.2,11.0,30.10,NNW,335,9.0,21.0,16,0.00,,,0.00,570,weatherlink.com 1.10,2013-01-07 19:10:00,
2013-01-07 11:15:00,57.1,9.9,30.10,NNW,338,12.0,21.0,15,0.00,,---,0.00,569.00,VWS V14.01,2013-01-07 19:15:00,
2013-01-07 11:25:00,57.8,10.0,30.09,NNW,347,8.0,19.0,15,0.00,,,0.00,584,weatherlink.com 1.10,2013-01-07 19:25:00,
2013-01-07 11:30:00,57.7,10.4,30.09,North,0,11.0,19.0,15,0.00,,---,0.00,583.00,VWS V14.01,2013-01-07 19:30:00,
2013-01-07 11:40:00,58.4,11.0,30.08,ENE,66,9.0,16.0,15,0.00,,,0.00,582,weatherlink.com 1.10,2013-01-07 19:40:00,
2013-01-07 11:45:00,58.4,12.4,30.08,NE,45,8.0,16.0,16,0.00,,---,0.00,586.00,VWS V14.01,2013-01-07 19:45:00,
2013-01-07 11:55:00,58.3,11.0,30.07,East,95,8.0,13.0,15,0.00,,,0.00,538,weatherlink.com 1.10,2013-01-07 19:55:00,
2013-01-07 12:00:00,58.3,10.9,30.07,ENE,68,8.0,15.0,15,0.00,,---,0.00,564.00,VWS V14.01,2013-01-07 20:00:00,
2013-01-07 12:10:00,58.9,11.0,30.07,NNE,22,4.0,11.0,15,0.00,,,0.00,629,weatherlink.com 1.10,2013-01-07 20:10:00,
2013-01-07 12:15:00,58.7,11.2,30.07,NNE,22,5.0,12.0,15,0.00,,---,0.00,618.00,VWS V14.01,2013-01-07 20:15:00,
2013-01-07 12:25:00,60.2,11.0,30.06,North,2,5.0,15.0,14,0.00,,,0.00,591,weatherlink.com 1.10,2013-01-07 20:25:00,
2013-01-07 12:30:00,60.0,9.0,30.05,North,0,8.0,15.0,13,0.00,,---,0.00,574.00,VWS V14.01,2013-01-07 20:30:00,
2013-01-07 12:40:00,60.9,10.0,30.05,North,349,14.0,16.0,13,0.00,,,0.00,439,weatherlink.com 1.10,2013-01-07 20:40:00,
2013-01-07 12:45:00,60.8,9.7,30.05,North,0,9.0,16.0,13,0.00,,---,0.00,551.00,VWS V14.01,2013-01-07 20:45:00,
2013-01-07 12:55:00,61.0,10.0,30.04,NNW,346,10.0,15.0,13,0.00,,,0.00,315,weatherlink.com 1.10,2013-01-07 20:55:00,
2013-01-07 13:00:00,61.0,9.8,30.04,North,0,8.0,15.0,13,0.00,,---,0.00,367.00,VWS V14.01,2013-01-07 21:00:00,
2013-01-07 13:11:00,61.0,10.0,30.03,NW,321,6.0,16.0,13,0.00,,,0.00,490,weatherlink.com 1.10,2013-01-07 21:11:00,
2013-01-07 13:15:00,61.2,11.6,30.03,NW,315,10.0,16.0,14,0.00,,---,0.00,515.00,VWS V14.01,2013-01-07 21:15:00,
2013-01-07 13:26:00,61.0,11.0,30.02,NW,317,7.0,18.0,14,0.00,,,0.00,522,weatherlink.com 1.10,2013-01-07 21:26:00,
2013-01-07 13:30:00,61.1,9.9,30.02,NNW,338,10.0,18.0,13,0.00,,---,0.00,523.00,VWS V14.01,2013-01-07 21:30:00,
2013-01-07 13:41:00,61.5,10.0,30.02,NNW,331,9.0,14.0,13,0.00,,,0.00,504,weatherlink.com 1.10,2013-01-07 21:41:00,
2013-01-07 13:45:00,61.5,10.2,30.02,NNE,22,8.0,14.0,13,0.00,,---,0.00,502.00,VWS V14.01,2013-01-07 21:45:00,
2013-01-07 13:56:00,62.4,11.0,30.02,NNE,26,8.0,16.0,13,0.00,,,0.00,497,weatherlink.com 1.10,2013-01-07 21:56:00,
2013-01-07 14:00:00,62.2,10.8,30.02,NNE,22,6.0,16.0,13,0.00,,---,0.00,492.00,VWS V14.01,2013-01-07 22:00:00,
2013-01-07 14:11:00,62.6,11.0,30.02,East,89,5.0,9.0,13,0.00,,,0.00,462,weatherlink.com 1.10,2013-01-07 22:11:00,
2013-01-07 14:15:00,62.5,11.0,30.02,East,90,4.0,9.0,13,0.00,,---,0.00,465.00,VWS V14.01,2013-01-07 22:15:00,
2013-01-07 14:26:00,62.6,11.0,30.02,ENE,67,4.0,6.0,13,0.00,,,0.00,438,weatherlink.com 1.10,2013-01-07 22:26:00,
2013-01-07 14:30:00,62.6,11.1,30.02,NE,45,3.0,8.0,13,0.00,,---,0.00,427.00,VWS V14.01,2013-01-07 22:30:00,
2013-01-07 14:41:00,62.6,11.0,30.02,ESE,105,8.0,9.0,13,0.00,,,0.00,410,weatherlink.com 1.10,2013-01-07 22:41:00,
2013-01-07 14:45:00,62.5,11.0,30.02,East,90,4.0,9.0,13,0.00,,---,0.00,340.00,VWS V14.01,2013-01-07 22:45:00,
2013-01-07 14:56:00,62.0,10.0,30.03,East,91,5.0,9.0,13,0.00,,,0.00,366,weatherlink.com 1.10,2013-01-07 22:56:00,
2013-01-07 15:00:00,62.1,10.7,30.03,East,90,5.0,9.0,13,0.00,,---,0.00,333.00,VWS V14.01,2013-01-07 23:00:00,
2013-01-07 15:11:00,61.8,12.0,30.04,East,101,3.0,11.0,14,0.00,,,0.00,220,weatherlink.com 1.10,2013-01-07 23:11:00,
2013-01-07 15:15:00,61.8,10.5,30.03,ENE,68,5.0,11.0,13,0.00,,---,0.00,242.00,VWS V14.01,2013-01-07 23:15:00,
2013-01-07 15:26:00,61.2,10.0,30.04,ESE,113,7.0,8.0,13,0.00,,,0.00,137,weatherlink.com 1.10,2013-01-07 23:26:00,
2013-01-07 15:30:00,61.3,10.1,30.04,ESE,112,5.0,8.0,13,0.00,,---,0.00,156.00,VWS V14.01,2013-01-07 23:30:00,
2013-01-07 15:41:00,60.2,11.0,30.05,East,99,2.0,7.0,14,0.00,,,0.00,62,weatherlink.com 1.10,2013-01-07 23:41:00,
2013-01-07 15:45:00,60.5,11.1,30.05,East,90,4.0,7.0,14,0.00,,---,0.00,70.00,VWS V14.01,2013-01-07 23:45:00,
2013-01-07 15:56:00,59.2,10.0,30.05,East,95,3.0,6.0,14,0.00,,,0.00,107,weatherlink.com 1.10,2013-01-07 23:56:00,
2013-01-07 16:00:00,59.4,10.2,30.06,East,90,3.0,6.0,14,0.00,,---,0.00,87.00,VWS V14.01,2013-01-08 00:00:00,
2013-01-07 16:11:00,58.6,8.0,30.05,South,171,5.0,8.0,13,0.00,,,0.00,65,weatherlink.com 1.10,2013-01-08 00:11:00,
2013-01-07 16:15:00,58.8,11.3,30.06,South,180,4.0,8.0,15,0.00,,---,0.00,69.00,VWS V14.01,2013-01-08 00:15:00,
2013-01-07 16:26:00,57.5,10.0,30.05,SSE,164,4.0,5.0,15,0.00,,,0.00,28,weatherlink.com 1.10,2013-01-08 00:26:00,
2013-01-07 16:30:00,57.7,10.4,30.05,SSE,158,3.0,7.0,15,0.00,,---,0.00,33.00,VWS V14.01,2013-01-08 00:30:00,
2013-01-07 16:41:00,56.6,11.0,30.06,SSE,164,1.0,4.0,16,0.00,,,0.00,14,weatherlink.com 1.10,2013-01-08 00:41:00,
2013-01-07 16:45:00,56.7,11.0,30.06,SSE,158,1.0,4.0,16,0.00,,---,0.00,15.00,VWS V14.01,2013-01-08 00:45:00,
2013-01-07 16:56:00,55.6,10.0,30.05,SSE,147,5.0,5.0,16,0.00,,,0.00,0,weatherlink.com 1.10,2013-01-08 00:56:00,
2013-01-07 17:00:00,55.8,10.3,30.05,SSE,158,3.0,6.0,16,0.00,,---,0.00,2.00,VWS V14.01,2013-01-08 01:00:00,
2013-01-07 17:11:00,54.8,11.0,30.06,SE,139,1.0,5.0,17,0.00,,,0.00,0,weatherlink.com 1.10,2013-01-08 01:11:00,
2013-01-07 17:15:00,54.9,10.9,30.06,SE,135,2.0,5.0,17,0.00,,---,0.00,0.00,VWS V14.01,2013-01-08 01:15:00,
2013-01-07 17:26:00,53.6,10.0,30.06,SE,139,2.0,2.0,17,0.00,,,0.00,0,weatherlink.com 1.10,2013-01-08 01:26:00,
2013-01-07 17:30:00,53.9,10.1,30.06,SE,135,1.0,2.0,17,0.00,,---,0.00,0.00,VWS V14.01,2013-01-08 01:30:00,
2013-01-07 17:41:00,52.5,10.0,30.07,SE,139,0.0,1.0,18,0.00,,,0.00,0,weatherlink.com 1.10,2013-01-08 01:41:00,
2013-01-07 17:45:00,52.6,10.3,30.07,SE,135,1.0,3.0,18,0.00,,---,0.00,0.00,VWS V14.01,2013-01-08 01:45:00,
2013-01-07 17:56:00,50.5,9.0,30.07,SE,140,0.0,2.0,19,0.00,,,0.00,0,weatherlink.com 1.10,2013-01-08 01:56:00,
2013-01-07 18:00:00,50.9,10.1,30.06,SE,135,0.0,2.0,19,0.00,,---,0.00,0.00,VWS V14.01,2013-01-08 02:00:00,
2013-01-07 18:11:00,49.1,8.0,30.06,SE,140,2.0,2.0,19,0.00,,,0.00,0,weatherlink.com 1.10,2013-01-08 02:11:00,
2013-01-07 18:15:00,49.2,9.9,30.06,SE,135,1.0,3.0,20,0.00,,---,0.00,0.00,VWS V14.01,2013-01-08 02:15:00,
2013-01-07 18:26:00,47.1,8.0,30.06,SE,140,1.0,2.0,20,0.00,,,0.00,0,weatherlink.com 1.10,2013-01-08 02:26:00,
2013-01-07 18:30:00,47.4,9.4,30.06,SE,135,1.0,3.0,21,0.00,,---,0.00,0.00,VWS V14.01,2013-01-08 02:30:00,
2013-01-07 18:41:00,46.0,8.0,30.06,SE,140,2.0,3.0,21,0.00,,,0.00,0,weatherlink.com 1.10,2013-01-08 02:41:00,
2013-01-07 18:45:00,46.1,8.4,30.07,SE,135,1.0,7.0,21,0.00,,---,0.00,0.00,VWS V14.01,2013-01-08 02:45:00,
2013-01-07 18:56:00,45.2,8.0,30.07,West,280,3.0,4.0,22,0.00,,,0.00,0,weatherlink.com 1.10,2013-01-08 02:56:00,
2013-01-07 19:00:00,45.3,8.7,30.07,West,270,2.0,5.0,22,0.00,,---,0.00,0.00,VWS V14.01,2013-01-08 03:00:00,
2013-01-07 19:11:00,45.2,8.0,30.09,West,280,0.0,1.0,22,0.00,,,0.00,0,weatherlink.com 1.10,2013-01-08 03:11:00,
2013-01-07 19:15:00,45.3,8.7,30.09,West,270,0.0,4.0,22,0.00,,---,0.00,0.00,VWS V14.01,2013-01-08 03:15:00,
2013-01-07 19:26:00,44.5,9.0,30.08,West,280,0.0,0.0,23,0.00,,,0.00,0,weatherlink.com 1.10,2013-01-08 03:26:00,
2013-01-07 19:30:00,44.8,9.3,30.08,West,270,0.0,4.0,23,0.00,,---,0.00,0.00,VWS V14.01,2013-01-08 03:30:00,
2013-01-07 19:41:00,43.3,8.0,30.09,West,280,1.0,3.0,23,0.00,,,0.00,0,weatherlink.com 1.10,2013-01-08 03:41:00,
2013-01-07 19:45:00,43.5,8.2,30.09,West,270,2.0,3.0,23,0.00,,---,0.00,0.00,VWS V14.01,2013-01-08 03:45:00,
2013-01-07 19:56:00,43.2,8.0,30.09,West,280,0.0,3.0,24,0.00,,,0.00,0,weatherlink.com 1.10,2013-01-08 03:56:00,
2013-01-07 20:00:00,43.2,8.9,30.09,West,270,1.0,3.0,24,0.00,,---,0.00,0.00,VWS V14.01,2013-01-08 04:00:00,
2013-01-07 20:11:00,42.9,8.0,30.09,West,280,0.0,4.0,24,0.00,,,0.00,0,weatherlink.com 1.10,2013-01-08 04:11:00,
2013-01-07 20:15:00,43.0,9.6,30.09,West,270,1.0,4.0,25,0.00,,---,0.00,0.00,VWS V14.01,2013-01-08 04:15:00,
2013-01-07 20:26:00,42.2,9.0,30.08,WNW,300,1.0,5.0,25,0.00,,,0.00,0,weatherlink.com 1.10,2013-01-08 04:26:00,
2013-01-07 20:30:00,42.3,9.0,30.09,WNW,292,1.0,5.0,25,0.00,,---,0.00,0.00,VWS V14.01,2013-01-08 04:30:00,
2013-01-07 20:41:00,41.8,9.0,30.09,WNW,300,0.0,3.0,26,0.00,,,0.00,0,weatherlink.com 1.10,2013-01-08 04:41:00,
2013-01-07 20:45:00,41.9,9.5,30.08,WNW,292,0.0,3.0,26,0.00,,---,0.00,0.00,VWS V14.01,2013-01-08 04:45:00,
2013-01-07 20:56:00,41.2,9.0,30.08,WNW,300,1.0,2.0,26,0.00,,,0.00,0,weatherlink.com 1.10,2013-01-08 04:56:00,
2013-01-07 21:00:00,41.3,9.9,30.08,WNW,292,1.0,2.0,27,0.00,,---,0.00,0.00,VWS V14.01,2013-01-08 05:00:00,
2013-01-07 21:15:00,41.0,8.8,30.08,WNW,292,2.0,4.0,26,0.00,,---,0.00,0.00,VWS V14.01,2013-01-08 05:15:00,
2013-01-07 21:26:00,41.3,9.0,30.09,WNW,299,1.0,3.0,26,0.00,,,0.00,0,weatherlink.com 1.10,2013-01-08 05:26:00,
2013-01-07 21:30:00,41.3,9.0,30.09,WNW,292,1.0,4.0,26,0.00,,---,0.00,0.00,VWS V14.01,2013-01-08 05:30:00,
2013-01-07 21:41:00,41.3,9.0,30.09,NW,316,0.0,2.0,26,0.00,,,0.00,0,weatherlink.com 1.10,2013-01-08 05:41:00,
2013-01-07 21:45:00,41.3,9.0,30.08,NW,315,0.0,3.0,26,0.00,,---,0.00,0.00,VWS V14.01,2013-01-08 05:45:00,
2013-01-07 21:56:00,40.8,8.0,30.09,NW,315,4.0,4.0,26,0.00,,,0.00,0,weatherlink.com 1.10,2013-01-08 05:56:00,
2013-01-07 22:00:00,40.9,8.7,30.08,NW,315,3.0,4.0,26,0.00,,---,0.00,0.00,VWS V14.01,2013-01-08 06:00:00,
2013-01-07 22:11:00,41.1,8.0,30.09,NNW,330,1.0,4.0,26,0.00,,,0.00,0,weatherlink.com 1.10,2013-01-08 06:11:00,
2013-01-07 22:15:00,41.1,9.7,30.09,NNW,338,1.0,4.0,27,0.00,,---,0.00,0.00,VWS V14.01,2013-01-08 06:15:00,
2013-01-07 22:26:00,40.6,9.0,30.09,NNW,335,0.0,5.0,27,0.00,,,0.00,0,weatherlink.com 1.10,2013-01-08 06:26:00,
2013-01-07 22:30:00,40.7,9.3,30.08,NNW,338,1.0,5.0,27,0.00,,---,0.00,0.00,VWS V14.01,2013-01-08 06:30:00,
2013-01-07 22:41:00,39.9,9.0,30.09,NNW,335,0.0,2.0,28,0.00,,,0.00,0,weatherlink.com 1.10,2013-01-08 06:41:00,
2013-01-07 22:45:00,40.1,9.6,30.09,NNW,338,1.0,4.0,28,0.00,,---,0.00,0.00,VWS V14.01,2013-01-08 06:45:00,
2013-01-07 23:00:00,40.1,8.8,30.09,NNW,338,3.0,5.0,27,0.00,,---,0.00,0.00,VWS V14.01,2013-01-08 07:00:00,
2013-01-07 23:11:00,42.9,10.0,30.09,NNW,334,3.0,4.0,26,0.00,,,0.00,0,weatherlink.com 1.10,2013-01-08 07:11:00,
2013-01-07 23:15:00,42.3,9.9,30.09,NNW,338,2.0,5.0,26,0.00,,---,0.00,0.00,VWS V14.01,2013-01-08 07:15:00,
2013-01-07 23:26:00,45.1,12.0,30.09,NNW,333,3.0,4.0,26,0.00,,,0.00,0,weatherlink.com 1.10,2013-01-08 07:26:00,
2013-01-07 23:30:00,44.7,11.9,30.09,NNW,338,3.0,6.0,26,0.00,,---,0.00,0.00,VWS V14.01,2013-01-08 07:30:00,
2013-01-07 23:41:00,47.1,13.0,30.09,NW,324,2.0,5.0,25,0.00,,,0.00,0,weatherlink.com 1.10,2013-01-08 07:41:00,
2013-01-07 23:45:00,46.8,12.9,30.09,NW,315,3.0,5.0,25,0.00,,---,0.00,0.00,VWS V14.01,2013-01-08 07:45:00,
2013-01-07 23:56:00,47.7,14.0,30.10,NW,324,2.0,4.0,26,0.00,,,0.00,0,weatherlink.com 1.10,2013-01-08 07:56:00,